This is the latest recevied weather packets stored in our database for station/object EB1TK-13. If no packets are shown the sender has not sent any weather packets the latest 10 day(s).
| Time | Temp. | Humidity | Pressure | Rain* | Wind** | Luminosity | Snow |
|---|---|---|---|---|---|---|---|
| 1778281337 | 11.11° C | 95% | 1009.4 hPa | 0 mm | - | - | - |
| 1778280740 | 10.56° C | 93% | 1009.7 hPa | 0 mm | - | - | - |
| 1778280135 | 11.67° C | 94% | 1009.6 hPa | 0 mm | - | - | - |
| 1778279536 | 11.67° C | 95% | 1009.7 hPa | 0 mm | - | - | - |
| 1778278941 | 11.67° C | 95% | 1009.8 hPa | 0 mm | - | - | - |
| 1778278336 | 11.11° C | 95% | 1010 hPa | 0 mm | - | - | - |
| 1778277737 | 11.11° C | 95% | 1010 hPa | 0 mm | - | - | - |
| 1778277135 | 11.11° C | 94% | 1010 hPa | 0 mm | - | - | - |
| 1778276535 | 11.11° C | 94% | 1010 hPa | 0 mm | - | - | - |
| 1778275936 | 11.11° C | 92% | 1010.3 hPa | 0 mm | - | - | - |
| 1778275336 | 12.22° C | 94% | 1010.1 hPa | 0 mm | - | - | - |
| 1778274736 | 11.67° C | 94% | 1010.3 hPa | 0 mm | - | - | - |
| 1778274137 | 11.67° C | 94% | 1010.4 hPa | 0 mm | - | - | - |
| 1778273537 | 11.67° C | 93% | 1010.4 hPa | 0 mm | - | - | - |
| 1778272935 | 12.22° C | 93% | 1010.3 hPa | 0 mm | - | - | - |
| 1778272335 | 12.22° C | 92% | 1010.3 hPa | 0 mm | - | - | - |
| 1778271735 | 12.78° C | 92% | 1010.4 hPa | 0 mm | - | - | - |
| 1778271138 | 12.78° C | 92% | 1010.3 hPa | 0 mm | - | - | - |
| 1778270537 | 12.78° C | 92% | 1010.4 hPa | 0 mm | - | - | - |
| 1778269937 | 12.78° C | 93% | 1010.3 hPa | 0 mm | - | - | - |
| 1778269337 | 12.78° C | 93% | 1010 hPa | 0 mm | - | - | - |
| 1778268735 | 12.78° C | 93% | 1010.1 hPa | 0 mm | - | - | - |
| 1778268135 | 12.78° C | 93% | 1010 hPa | 0 mm | - | - | - |
| 1778267536 | 12.78° C | 93% | 1010 hPa | 0 mm | - | - | - |
| 1778266936 | 13.89° C | 93% | 1010 hPa | 0 mm | - | - | - |
* Rain latest hour (hover to see other rain measurements)
** Current wind speed in m/s (hover to see current wind gust speed)